Poplar Grove, Illinois
Current Conditions -  °F | °C
As of 11:54 PM on Tuesday 27 Jan 2015 (Local Time) from KRFD Reporting Station
Overcast Overcast  
Wind Chill: 17°   Ceiling: 16000
Heat Index: 23°   Visibility: 10mi
Dew Point: 17°   Wind: 5mph
Humidity: 78%   Direction: 160°SSE
Pressure: 30.28"   Gusts: NA
Location:  42.37°N, 88.82°W
Report Text: KRFD 280554Z 16004KT 10SM OVC160 M05/M08 A3028 RMK AO2 SLP263 T10501083 11011 21056 410061056 53006
Loading
Personal Weather Stations






























Interactive Weather Map New forecast layout! Learn more

10-Day Weather Forecast

Advertisements
Track Severe Weather on mobile